ETSH

Holzdorf Airport

Germany
METAR ETSH 230020Z 26003KT 9999 03/02 Q1027 BLU+
Observed Flight Rules
Oct-23 @ 00:20 UTC (42 minutes ago)
Wind Visibility
260° at 3 knots 10,000+ meters
Temperatures Readings
Current 3°C / 37°F
Dewpoint 2°C / 36°F
Humidity 93%
Altimeter 30.32" Hg
Pressure 1027 hPa
Elevation 79
METAR ETSH 230020Z 26003KT 9999 03/02 Q1027 BLU+
Observed Flight Rules
Oct-23 @ 00:20 UTC
(42 minutes ago)
Wind Visibility
260° at 3 knots 10,000+ meters
Temperature Dewpoint
3°C / 37°F 2°C / 36°F
Humidity Altimeter Pressure
93% 30.32" Hg 1027 hPa